CheckWX is a tool to help pilots better visualize weather data.  It is not intended as a substitute for an official pre-flight weather briefing.

07:18:40 UTC

ENTO METAR
Sandefjord Torp Airport
Torp, Norway
Current

29 mins ago

ENTO 260650Z 33010KT 290V360 CAVOK 11/M02 Q0998 NOSIG
Observed
May-26 @ 06:50 UTC
Wind
  • 330° at 10 KTS
Visibility
10,000+ meters
Flight Rules
VFR
Cloud Levels
  • Clear skies
Temperature
11°C / 52°F
Dewpoint
-2°C / 28°F
Humidity
41%
Altimeter
29.47" Hg
Pressure
997.92 hPa
Previous

59 mins ago

ENTO 260620Z 30007KT 260V360 CAVOK 11/M02 Q0998 NOSIG
Observed
May-26 @ 06:20 UTC
Wind
  • 300° at 7 KTS
Visibility
10,000+ meters
Flight Rules
VFR
Cloud Levels
  • Clear skies
Temperature
11°C / 52°F
Dewpoint
-2°C / 28°F
Humidity
41%
Altimeter
29.47" Hg
Pressure
997.92 hPa
Previous

1 hour ago

ENTO 260550Z 29010KT 260V330 CAVOK 10/M02 Q0998 NOSIG
Observed
May-26 @ 05:50 UTC
Wind
  • 290° at 10 KTS
Visibility
10,000+ meters
Flight Rules
VFR
Cloud Levels
  • Clear skies
Temperature
10°C / 50°F
Dewpoint
-2°C / 28°F
Humidity
43%
Altimeter
29.47" Hg
Pressure
997.92 hPa